Time;durP1;ratioP1;P1;durP2;ratioP2;P2;SDS_P1;SDS_P2;PMS_P1;PMS_P2;Temp;Humidity;BMP_temperature;BMP_pressure;BME280_temperature;BME280_humidity;BME280_pressure;Samples;Min_cycle;Max_cycle;Signal;HPM_P1;HPM_P2
2022/06/02 00:00:47;;;;;;;9.85;6.30;;;;;;;20.24;82.97;100587.25;4948887;28;20055;-76
2022/06/02 00:03:28;;;;;;;7.43;6.38;;;;;;;20.27;81.45;100571.13;4941242;28;20043;-76
2022/06/02 00:06:02;;;;;;;10.07;6.18;;;;;;;20.32;82.43;100589.59;4948451;28;20039;-76
2022/06/02 00:09:00;;;;;;;12.68;6.85;;;;;;;20.13;83.41;100592.94;4949254;28;20035;-73
2022/06/02 00:11:47;;;;;;;12.05;5.40;;;;;;;20.15;81.83;100593.78;4945603;28;20070;-75
2022/06/02 00:14:23;;;;;;;11.93;7.40;;;;;;;20.39;79.89;100586.69;4948087;28;20058;-74
2022/06/02 00:17:03;;;;;;;10.77;6.45;;;;;;;19.77;80.84;100502.81;4947590;28;20051;-75
2022/06/02 00:19:55;;;;;;;13.48;7.93;;;;;;;20.39;80.46;100584.00;4943876;28;20058;-75
2022/06/02 00:22:30;;;;;;;11.32;6.50;;;;;;;20.41;79.86;100576.81;4929030;28;20051;-75
2022/06/02 00:25:24;;;;;;;19.77;6.60;;;;;;;20.37;81.65;100583.19;4948890;28;20050;-73
2022/06/02 00:28:13;;;;;;;11.40;7.35;;;;;;;20.33;80.49;100570.91;4943262;28;20053;-74
2022/06/02 00:30:48;;;;;;;7.53;5.38;;;;;;;20.32;80.11;100570.94;4942788;28;20047;-75
2022/06/02 00:33:41;;;;;;;16.52;6.80;;;;;;;20.39;79.09;100578.69;4944533;28;20433;-73
2022/06/02 00:36:21;;;;;;;7.38;6.53;;;;;;;20.24;78.83;100563.25;4945633;28;20055;-73
2022/06/02 00:38:49;;;;;;;10.13;7.28;;;;;;;20.25;79.89;100575.63;4947490;28;20075;-75
2022/06/02 00:41:51;;;;;;;12.55;7.28;;;;;;;20.19;81.65;100573.22;4942646;28;20490;-74
2022/06/02 00:44:29;;;;;;;13.07;6.47;;;;;;;20.03;81.22;100576.44;4945076;28;20059;-74
2022/06/02 00:46:59;;;;;;;13.23;5.63;;;;;;;20.02;82.91;100564.06;4949834;28;20055;-76
2022/06/02 00:49:33;;;;;;;8.40;6.45;;;;;;;19.92;84.50;100577.75;4949550;28;20149;-75
2022/06/02 00:52:13;;;;;;;10.65;5.65;;;;;;;19.36;84.90;100509.59;4948959;28;20055;-74
2022/06/02 00:58:27;;;;;;;9.30;5.78;;;;;;;19.73;85.10;100567.75;4953175;28;20102;-76
2022/06/02 01:01:12;;;;;;;11.10;6.60;;;;;;;19.70;84.13;100590.97;4953992;28;20062;-74
2022/06/02 01:03:42;;;;;;;15.18;5.97;;;;;;;18.80;84.42;100400.69;4955314;28;20051;-75
2022/06/02 01:06:30;;;;;;;8.55;6.38;;;;;;;19.45;83.96;100487.13;4949816;28;21310;-74
2022/06/02 01:09:37;;;;;;;15.15;7.13;;;;;;;19.84;83.75;100555.88;4895959;28;20107;-75
2022/06/02 01:12:46;;;;;;;12.48;6.93;;;;;;;19.60;82.61;100526.50;4912093;29;20044;-75
2022/06/02 01:15:22;;;;;;;13.90;7.13;;;;;;;19.45;82.05;100484.44;4951316;28;20051;-75
2022/06/02 01:18:24;;;;;;;11.00;5.82;;;;;;;19.96;81.61;100555.41;4956889;28;20038;-74
2022/06/02 01:21:23;;;;;;;9.52;6.60;;;;;;;19.33;81.95;100486.63;4941925;28;20039;-75
2022/06/02 01:24:19;;;;;;;13.55;8.40;;;;;;;19.79;81.40;100566.69;4955749;28;20039;-75
2022/06/02 01:26:57;;;;;;;10.85;7.13;;;;;;;19.72;80.96;100558.03;4956491;28;20046;-75
2022/06/02 01:29:35;;;;;;;10.93;7.55;;;;;;;19.71;81.07;100563.41;4957940;28;20042;-75
2022/06/02 01:32:20;;;;;;;11.93;6.85;;;;;;;19.62;80.72;100556.59;4953657;28;20192;-74
2022/06/02 01:35:04;;;;;;;8.65;5.50;;;;;;;19.65;80.91;100571.59;4929345;28;20572;-75
2022/06/02 01:37:44;;;;;;;11.95;6.28;;;;;;;19.58;81.23;100563.81;4954723;28;20058;-75
2022/06/02 01:40:19;;;;;;;9.85;5.78;;;;;;;19.31;80.17;100527.50;4956211;28;20055;-73
2022/06/02 01:43:13;;;;;;;8.88;6.15;;;;;;;19.63;80.59;100570.78;4954435;28;20055;-75
2022/06/02 01:46:20;;;;;;;8.25;5.63;;;;;;;19.11;81.62;100490.97;4926605;28;20055;-75
2022/06/02 01:49:04;;;;;;;10.10;5.88;;;;;;;19.52;82.10;100560.50;4924593;28;20146;-75
2022/06/02 01:51:48;;;;;;;11.50;6.22;;;;;;;19.02;80.54;100476.16;4925031;28;20051;-75
2022/06/02 01:54:26;;;;;;;9.95;5.93;;;;;;;19.00;81.24;100479.81;4919223;29;20151;-75
2022/06/02 01:57:45;;;;;;;15.27;6.07;;;;;;;19.40;81.61;100562.66;4926306;29;20062;-75
2022/06/02 02:00:17;;;;;;;16.00;5.47;;;;;;;19.38;81.19;100552.97;4941091;28;20066;-74
2022/06/02 02:02:52;;;;;;;;;;;;;;;19.46;80.39;100556.28;4925452;29;20394;-76
2022/06/02 02:05:57;;;;;;;10.00;6.00;;;;;;;19.31;80.88;100535.50;4943351;28;19929;-75
2022/06/02 02:08:35;;;;;;;10.77;5.45;;;;;;;19.33;82.08;100554.94;4903193;29;20122;-75
2022/06/02 02:11:35;;;;;;;13.05;6.18;;;;;;;18.88;81.80;100479.28;4926655;28;20103;-76
2022/06/02 02:14:39;;;;;;;9.63;5.68;;;;;;;18.88;80.57;100473.13;4927424;28;20070;-76
2022/06/02 02:17:17;;;;;;;13.95;5.30;;;;;;;19.34;81.53;100546.06;4927009;29;20054;-76
2022/06/02 02:19:56;;;;;;;11.00;5.63;;;;;;;19.03;81.31;100559.47;4922474;29;20104;-75
2022/06/02 02:22:27;;;;;;;12.02;5.75;;;;;;;18.50;81.79;100510.59;4920989;29;20063;-75
2022/06/02 02:25:02;;;;;;;14.95;5.75;;;;;;;18.97;81.77;100565.88;4920863;28;20043;-74
2022/06/02 02:28:04;;;;;;;9.90;5.90;;;;;;;18.74;82.31;100548.84;4920327;29;20240;-74
2022/06/02 02:30:54;;;;;;;11.70;5.95;;;;;;;19.09;80.46;100562.81;4923315;28;20114;-74
2022/06/02 02:33:34;;;;;;;6.75;5.13;;;;;;;19.05;80.23;100557.66;4918454;28;21179;-74
2022/06/02 02:36:47;;;;;;;12.85;6.38;;;;;;;19.14;80.85;100555.56;4923662;29;20039;-73
2022/06/02 02:39:40;;;;;;;13.63;6.50;;;;;;;19.00;83.51;100551.63;4913882;28;20043;-74
2022/06/02 02:42:11;;;;;;;11.45;6.30;;;;;;;19.03;84.63;100559.47;4919316;29;23335;-73
2022/06/02 02:45:27;;;;;;;9.15;5.78;;;;;;;18.95;84.52;100557.09;4941562;28;20825;-74
2022/06/02 02:48:30;;;;;;;15.90;6.28;;;;;;;18.40;84.95;100477.25;4877381;29;20056;-74
2022/06/02 02:51:04;;;;;;;12.93;6.70;;;;;;;18.91;84.98;100553.63;4877666;29;20119;-74
2022/06/02 02:53:36;;;;;;;11.27;6.28;;;;;;;18.92;84.33;100554.53;4933873;28;20058;-74
2022/06/02 02:56:29;;;;;;;14.70;6.50;;;;;;;18.96;84.45;100558.81;4947355;28;20043;-74
2022/06/02 02:59:10;;;;;;;11.68;5.03;;;;;;;18.40;84.55;100490.53;4950633;28;20062;-74
2022/06/02 03:01:49;;;;;;;14.10;5.65;;;;;;;18.44;86.27;100539.16;4931481;28;20053;-74
2022/06/02 03:04:36;;;;;;;11.00;6.20;;;;;;;18.69;86.55;100550.78;4948393;28;20051;-73
2022/06/02 03:07:02;;;;;;;19.38;6.57;;;;;;;18.66;86.54;100556.19;4931751;28;20133;-74
2022/06/02 03:09:40;;;;;;;11.52;6.90;;;;;;;18.65;86.95;100542.94;4949605;28;20582;-74
2022/06/02 03:12:27;;;;;;;19.23;6.97;;;;;;;18.39;86.32;100493.25;4931591;28;20185;-74
2022/06/02 03:15:16;;;;;;;11.10;6.60;;;;;;;18.75;86.38;100536.41;4950948;28;20123;-75
2022/06/02 03:17:44;;;;;;;17.92;6.55;;;;;;;18.70;85.50;100547.19;4951289;28;20657;-75
2022/06/02 03:20:27;;;;;;;13.82;7.65;;;;;;;18.71;85.25;100556.91;4944890;28;20066;-74
2022/06/02 03:22:56;;;;;;;13.57;6.75;;;;;;;18.65;83.73;100554.44;4932682;28;20074;-74
2022/06/02 03:25:49;;;;;;;16.30;7.10;;;;;;;19.08;81.15;100565.50;4931990;28;20058;-74
2022/06/02 03:28:41;;;;;;;14.68;5.25;;;;;;;18.60;81.34;100502.34;4949880;28;20338;-76
2022/06/02 03:31:24;;;;;;;11.90;6.00;;;;;;;19.21;80.55;100566.00;4950264;28;20709;-74
2022/06/02 03:33:59;;;;;;;18.88;6.13;;;;;;;19.19;82.24;100566.03;4948989;28;20058;-75
2022/06/02 03:37:09;;;;;;;19.35;7.35;;;;;;;19.16;82.57;100576.78;4951232;28;20396;-75
2022/06/02 03:40:07;;;;;;;11.45;5.68;;;;;;;19.21;80.50;100581.97;4906436;28;20689;-75
2022/06/02 03:43:14;;;;;;;10.77;5.55;;;;;;;19.31;81.21;100583.38;4932454;28;20086;-75
2022/06/02 03:46:06;;;;;;;11.43;5.30;;;;;;;18.86;81.75;100521.00;4912657;29;20047;-74
2022/06/02 03:48:53;;;;;;;11.02;5.97;;;;;;;18.87;83.04;100535.16;4908751;29;20064;-75
2022/06/02 03:51:26;;;;;;;8.00;6.35;;;;;;;19.16;83.21;100590.97;4912269;29;20062;-74
2022/06/02 03:54:06;;;;;;;14.73;6.63;;;;;;;18.97;81.75;100558.78;4913178;29;20047;-74
2022/06/02 03:57:03;;;;;;;12.85;6.75;;;;;;;19.42;82.29;100588.34;4913757;29;20044;-74
2022/06/02 03:59:45;;;;;;;8.63;5.72;;;;;;;19.23;83.57;100588.09;4910593;29;20567;-75
2022/06/02 04:02:14;;;;;;;11.52;5.93;;;;;;;19.40;83.20;100601.72;4912811;29;20043;-75
2022/06/02 04:05:21;;;;;;;13.90;7.20;;;;;;;19.53;81.77;100604.84;4908482;29;20052;-75
2022/06/02 04:08:26;;;;;;;14.13;6.40;;;;;;;19.50;80.94;100594.28;4864931;29;20053;-75
2022/06/02 04:11:19;;;;;;;11.15;6.72;;;;;;;19.14;78.60;100544.91;4909928;29;20052;-75
2022/06/02 04:13:59;;;;;;;13.32;5.72;;;;;;;19.25;76.98;100531.25;4913400;29;20110;-75
2022/06/02 04:16:49;;;;;;;12.43;6.35;;;;;;;19.83;79.25;100616.25;4913762;29;20067;-74
2022/06/02 04:22:38;;;;;;;10.52;6.28;;;;;;;19.94;76.00;100622.06;4914727;29;20054;-75
2022/06/02 04:25:05;;;;;;;17.15;5.45;;;;;;;20.05;75.59;100616.34;4913468;29;20585;-75
2022/06/02 04:28:01;;;;;;;13.82;7.03;;;;;;;20.11;77.12;100609.91;4916614;29;20172;-75
2022/06/02 04:30:44;;;;;;;18.58;6.40;;;;;;;19.89;75.29;100620.50;4911324;29;20110;-75
2022/06/02 04:33:32;;;;;;;11.13;6.47;;;;;;;19.89;76.63;100628.47;4914501;29;20044;-74
2022/06/02 04:36:23;;;;;;;12.75;5.88;;;;;;;19.40;76.28;100559.13;4915481;29;20032;-75
2022/06/02 04:39:20;;;;;;;9.30;5.32;;;;;;;19.94;75.59;100629.19;4907266;29;20051;-75
2022/06/02 04:42:05;;;;;;;9.57;6.78;;;;;;;20.11;76.00;100625.91;4915266;29;20040;-75
2022/06/02 04:44:43;;;;;;;20.58;6.93;;;;;;;20.21;73.70;100625.53;4934543;28;20063;-76
2022/06/02 04:47:42;;;;;;;8.30;6.28;;;;;;;20.20;72.99;100604.25;4935375;28;20137;-74
2022/06/02 04:50:37;;;;;;;9.90;5.75;;;;;;;20.40;72.78;100609.72;4946335;28;20049;-75
2022/06/02 04:53:05;;;;;;;13.38;6.07;;;;;;;19.86;74.81;100556.69;4954181;28;20055;-75
2022/06/02 04:55:55;;;;;;;18.73;6.43;;;;;;;20.05;73.45;100608.38;4954011;28;20122;-75
2022/06/02 04:58:53;;;;;;;20.35;5.70;;;;;;;20.21;73.75;100633.53;4948571;28;20054;-75
2022/06/02 05:01:36;;;;;;;13.38;6.38;;;;;;;20.02;73.34;100596.03;4951458;28;20046;-75
2022/06/02 05:04:19;;;;;;;;;;;;;;;19.96;72.67;100558.09;4953533;28;20054;-75
2022/06/02 05:07:04;;;;;;;11.48;5.13;;;;;;;20.88;70.82;100634.59;4954540;28;20461;-74
2022/06/02 05:09:48;;;;;;;12.38;6.35;;;;;;;20.87;71.05;100640.88;4951530;28;20051;-74
2022/06/02 05:12:38;;;;;;;15.52;5.68;;;;;;;20.30;71.85;100575.47;4949274;28;20047;-73
2022/06/02 05:15:23;;;;;;;20.58;5.80;;;;;;;21.04;70.53;100622.38;4950914;28;20039;-74
2022/06/02 05:18:32;;;;;;;8.65;5.40;;;;;;;20.95;71.16;100566.72;4947409;28;20085;-75
2022/06/02 05:21:17;;;;;;;16.55;6.68;;;;;;;21.57;70.19;100638.97;4953035;28;20037;-73
2022/06/02 05:24:20;;;;;;;11.90;6.30;;;;;;;21.93;67.42;100641.88;4952896;28;20053;-74
2022/06/02 05:26:46;;;;;;;9.82;6.90;;;;;;;21.99;69.34;100635.41;4950200;28;20059;-75
2022/06/02 05:29:20;;;;;;;14.40;7.72;;;;;;;22.01;67.74;100585.41;4953417;28;20062;-75
2022/06/02 05:32:03;;;;;;;14.20;6.75;;;;;;;22.34;67.68;100631.19;4948567;28;20106;-75
2022/06/02 05:35:16;;;;;;;23.85;6.82;;;;;;;21.61;69.75;100565.78;4952784;28;20054;-76
2022/06/02 05:38:00;;;;;;;11.20;7.25;;;;;;;22.38;67.40;100637.25;4873867;29;20076;-75
2022/06/02 05:40:26;;;;;;;9.63;6.75;;;;;;;22.79;64.94;100638.00;4865453;29;20045;-75
2022/06/02 05:43:00;;;;;;;16.73;6.70;;;;;;;23.13;65.21;100641.78;4898673;28;20051;-75
2022/06/02 05:46:03;;;;;;;14.07;6.15;;;;;;;22.53;66.48;100550.97;4945358;28;20046;-75
2022/06/02 05:48:35;;;;;;;11.65;8.02;;;;;;;23.09;66.46;100584.84;4948694;28;20055;-73
2022/06/02 05:51:08;;;;;;;17.98;7.40;;;;;;;23.35;66.06;100642.47;4939109;28;20034;-74
2022/06/02 05:53:50;;;;;;;28.80;8.65;;;;;;;23.23;64.66;100584.19;4941421;28;20074;-73
2022/06/02 05:56:49;;;;;;;8.90;6.50;;;;;;;23.29;64.86;100642.75;4946092;28;20047;-73
2022/06/02 05:59:29;;;;;;;15.85;9.00;;;;;;;23.07;63.63;100585.88;4938026;28;20078;-73
2022/06/02 06:02:42;;;;;;;14.48;9.18;;;;;;;23.71;63.11;100649.59;4952962;28;20051;-73
2022/06/02 06:05:36;;;;;;;13.48;6.72;;;;;;;23.54;64.22;100585.28;4951796;28;20077;-74
2022/06/02 06:08:32;;;;;;;8.85;6.43;;;;;;;23.55;64.52;100593.25;4955592;28;20047;-73
2022/06/02 06:11:01;;;;;;;12.30;8.60;;;;;;;23.68;63.81;100592.63;4944490;28;20503;-74
2022/06/02 06:13:38;;;;;;;10.63;6.97;;;;;;;22.96;63.13;100509.59;4956987;28;20058;-73
2022/06/02 06:16:19;;;;;;;15.98;8.05;;;;;;;23.64;63.17;100604.44;4947873;28;20527;-73
2022/06/02 06:19:11;;;;;;;12.65;8.73;;;;;;;24.06;62.56;100603.19;4957450;28;20083;-73
2022/06/02 06:22:21;;;;;;;15.23;8.80;;;;;;;23.73;64.04;100596.78;4939552;28;20063;-73
2022/06/02 06:24:56;;;;;;;18.73;9.55;;;;;;;24.16;62.24;100658.94;4954489;28;20047;-73
2022/06/02 06:27:41;;;;;;;11.45;7.03;;;;;;;23.77;61.88;100601.09;4954036;28;20055;-73
2022/06/02 06:30:44;;;;;;;18.05;7.85;;;;;;;24.16;62.00;100601.72;4950103;28;20158;-73
2022/06/02 06:33:36;;;;;;;14.07;8.05;;;;;;;24.45;62.55;100680.66;4954055;28;20368;-73
2022/06/02 06:36:06;;;;;;;14.85;9.57;;;;;;;24.23;62.60;100657.66;4909566;28;20070;-73
2022/06/02 06:38:45;;;;;;;15.68;7.70;;;;;;;23.90;62.09;100589.72;4954675;28;20046;-74
2022/06/02 06:41:45;;;;;;;12.82;7.22;;;;;;;24.51;63.31;100668.75;4958533;28;20043;-74
2022/06/02 06:44:46;;;;;;;12.80;7.72;;;;;;;24.52;63.55;100660.63;4954449;28;20067;-74
2022/06/02 06:47:21;;;;;;;9.60;6.57;;;;;;;24.73;63.07;100679.19;4952569;28;20137;-74
2022/06/02 06:50:25;;;;;;;12.13;7.65;;;;;;;24.45;64.14;100584.06;4950254;28;20049;-73
2022/06/02 06:53:03;;;;;;;17.98;8.20;;;;;;;24.51;63.62;100599.84;4936902;28;20177;-75
2022/06/02 06:55:50;;;;;;;11.20;7.32;;;;;;;24.84;63.96;100669.59;4951711;28;20086;-73
2022/06/02 06:58:44;;;;;;;12.35;6.60;;;;;;;25.15;62.02;100664.31;4954751;28;20062;-73
2022/06/02 07:01:18;;;;;;;17.63;7.50;;;;;;;24.44;61.99;100591.25;4953396;28;20058;-73
2022/06/02 07:04:18;;;;;;;12.95;6.38;;;;;;;24.46;61.96;100603.72;4955089;28;20054;-72
2022/06/02 07:07:31;;;;;;;20.55;6.70;;;;;;;24.98;61.88;100639.28;4954702;28;20937;-72
2022/06/02 07:10:10;;;;;;;8.07;6.30;;;;;;;25.15;62.35;100645.53;4934711;28;20061;-73
2022/06/02 07:12:52;;;;;;;10.00;7.10;;;;;;;25.10;61.75;100600.13;4953993;28;20055;-73
2022/06/02 07:15:30;;;;;;;10.57;6.78;;;;;;;24.77;61.22;100606.47;4955259;28;20054;-74
2022/06/02 07:18:45;;;;;;;12.35;8.20;;;;;;;25.23;61.63;100593.09;4937788;28;20130;-73
2022/06/02 07:21:34;;;;;;;13.25;6.90;;;;;;;24.88;61.74;100594.25;4893298;28;20050;-73
2022/06/02 07:24:18;;;;;;;11.20;6.82;;;;;;;25.61;61.31;100646.41;4954537;28;20039;-73
2022/06/02 07:26:59;;;;;;;16.42;8.32;;;;;;;24.92;60.85;100598.50;4953395;28;20031;-73
2022/06/02 07:29:47;;;;;;;10.73;7.05;;;;;;;24.79;59.77;100571.47;4937889;28;21365;-73
2022/06/02 07:32:50;;;;;;;17.35;7.45;;;;;;;24.99;60.62;100581.09;4956032;28;20098;-74
2022/06/02 07:35:44;;;;;;;15.45;7.10;;;;;;;25.33;61.07;100657.91;4934266;28;20043;-73
2022/06/02 07:38:31;;;;;;;23.55;7.63;;;;;;;25.65;60.74;100649.81;4955876;28;20058;-73
2022/06/02 07:41:08;;;;;;;23.98;7.15;;;;;;;25.79;57.60;100648.97;4954977;28;20058;-72
2022/06/02 07:43:58;;;;;;;36.58;8.77;;;;;;;25.64;58.00;100605.94;4952928;28;20049;-73
2022/06/02 07:46:38;;;;;;;11.55;6.60;;;;;;;25.89;57.07;100658.25;4906891;29;20044;-73
2022/06/02 07:49:42;;;;;;;9.52;5.65;;;;;;;25.76;58.92;100598.97;4903946;29;20055;-72
2022/06/02 07:52:17;;;;;;;;;;;;;;;26.24;57.69;100655.25;4901278;29;20115;-73
2022/06/02 07:55:11;;;;;;;14.68;6.63;;;;;;;25.16;56.86;100495.03;4900411;29;19938;-73
2022/06/02 07:58:02;;;;;;;21.13;7.50;;;;;;;26.00;56.11;100606.50;4902504;29;20546;-73
2022/06/02 08:01:00;;;;;;;11.60;8.02;;;;;;;25.88;56.19;100568.66;4902014;29;20048;-72
2022/06/02 08:03:54;;;;;;;37.83;11.57;;;;;;;26.72;55.21;100677.41;4857600;29;20147;-74
2022/06/02 08:06:41;;;;;;;12.05;6.78;;;;;;;26.16;54.92;100590.31;4903092;29;20115;-74
2022/06/02 08:09:40;;;;;;;13.93;8.15;;;;;;;26.48;56.02;100634.91;4898015;29;20185;-73
2022/06/02 08:12:21;;;;;;;10.13;6.28;;;;;;;26.43;57.01;100622.66;4904993;29;20060;-74
2022/06/02 08:14:56;;;;;;;16.65;6.15;;;;;;;26.65;58.22;100600.69;4898444;29;20055;-73
2022/06/02 08:17:29;;;;;;;12.38;7.65;;;;;;;26.61;57.50;100607.22;4905143;29;20044;-74
2022/06/02 08:20:18;;;;;;;20.30;7.00;;;;;;;26.85;54.71;100585.91;4903820;29;20190;-74
2022/06/02 08:23:29;;;;;;;10.38;6.90;;;;;;;27.44;52.28;100670.06;4899019;29;20041;-74
2022/06/02 08:26:08;;;;;;;12.70;7.57;;;;;;;27.88;53.55;100665.34;4901111;29;20055;-74
2022/06/02 08:29:06;;;;;;;43.00;10.45;;;;;;;27.97;52.42;100667.41;4917495;29;20209;-73
2022/06/02 08:32:15;;;;;;;9.80;5.40;;;;;;;27.15;53.73;100604.59;4902910;29;20139;-74
2022/06/02 08:35:19;;;;;;;19.27;7.03;;;;;;;27.28;53.18;100605.53;4900322;29;20052;-74
2022/06/02 08:38:21;;;;;;;11.35;7.15;;;;;;;27.57;53.38;100670.97;4903197;29;20079;-72
2022/06/02 08:41:28;;;;;;;14.10;6.07;;;;;;;27.78;51.21;100625.50;4905405;29;20058;-73
2022/06/02 08:44:12;;;;;;;8.80;6.05;;;;;;;27.81;51.31;100675.66;4896389;28;20052;-74
2022/06/02 08:47:19;;;;;;;19.67;5.85;;;;;;;27.99;48.61;100601.59;4937075;28;21299;-73
2022/06/02 08:50:20;;;;;;;14.68;6.22;;;;;;;28.09;51.33;100615.31;4892179;29;20080;-73
2022/06/02 08:52:57;;;;;;;14.95;7.13;;;;;;;28.25;47.70;100609.69;4937773;28;20498;-73
2022/06/02 08:55:44;;;;;;;9.82;6.00;;;;;;;28.08;49.66;100669.41;4954733;28;20050;-73
2022/06/02 08:58:44;;;;;;;14.88;7.78;;;;;;;27.86;49.19;100618.75;4950080;28;20059;-74
2022/06/02 09:01:31;;;;;;;14.30;6.65;;;;;;;28.56;50.00;100672.31;4952416;28;20071;-73
2022/06/02 09:04:31;;;;;;;11.82;7.07;;;;;;;28.56;49.83;100596.72;4955200;28;20050;-73
2022/06/02 09:07:05;;;;;;;10.55;4.80;;;;;;;28.57;49.62;100668.66;4955402;28;20118;-75
2022/06/02 09:09:53;;;;;;;14.55;8.10;;;;;;;29.28;48.94;100668.97;4957447;28;20143;-75
2022/06/02 09:12:56;;;;;;;20.85;10.13;;;;;;;29.33;48.15;100669.47;4950202;28;20146;-74
2022/06/02 09:15:50;;;;;;;9.57;5.30;;;;;;;28.36;49.01;100639.50;4956740;28;20193;-74
2022/06/02 09:18:44;;;;;;;18.00;8.88;;;;;;;29.03;50.06;100632.88;4957981;28;20055;-73
2022/06/02 09:21:25;;;;;;;16.52;8.05;;;;;;;29.43;47.08;100674.09;4958561;28;20111;-73
2022/06/02 09:24:27;;;;;;;19.77;7.10;;;;;;;29.08;48.55;100665.00;4956423;28;20559;-75
2022/06/02 09:27:14;;;;;;;22.05;8.90;;;;;;;29.00;48.27;100681.75;4893286;29;20479;-73
2022/06/02 09:29:49;;;;;;;20.20;8.32;;;;;;;29.61;47.38;100642.06;4935869;28;20097;-72
2022/06/02 09:32:42;;;;;;;9.45;5.50;;;;;;;29.38;50.42;100665.44;4957191;28;21043;-73
2022/06/02 09:35:30;;;;;;;11.35;5.13;;;;;;;29.16;48.67;100670.72;4953326;28;20055;-75
2022/06/02 09:38:14;;;;;;;16.73;7.70;;;;;;;29.05;49.08;100677.75;4956177;28;20065;-74
2022/06/02 09:40:44;;;;;;;11.45;5.60;;;;;;;29.52;49.48;100659.00;4955723;28;20058;-73
2022/06/02 09:43:54;;;;;;;13.95;8.07;;;;;;;29.42;48.33;100668.78;4959746;28;20055;-72
2022/06/02 09:46:58;;;;;;;16.40;5.93;;;;;;;29.55;47.81;100664.19;4923366;29;20066;-73
2022/06/02 09:50:01;;;;;;;15.57;7.78;;;;;;;29.58;44.43;100606.28;4919740;29;20521;-73
2022/06/02 09:52:37;;;;;;;12.13;6.45;;;;;;;30.43;44.37;100614.97;4917441;29;20048;-74
2022/06/02 09:55:28;;;;;;;9.18;6.45;;;;;;;29.80;46.89;100606.38;4917589;28;20072;-74
2022/06/02 09:58:20;;;;;;;24.30;12.68;;;;;;;30.78;43.92;100642.91;4917586;29;20044;-74
2022/06/02 10:01:10;;;;;;;17.73;8.43;;;;;;;29.97;45.65;100651.09;4914769;29;20510;-73
2022/06/02 10:04:20;;;;;;;20.70;10.68;;;;;;;30.62;43.49;100659.53;4916672;29;20483;-73
2022/06/02 10:06:51;;;;;;;21.25;9.90;;;;;;;31.12;44.70;100658.16;4913259;29;20051;-74
2022/06/02 10:09:20;;;;;;;16.95;11.23;;;;;;;30.76;43.20;100634.03;4918841;28;20100;-74
2022/06/02 10:15:36;;;;;;;31.70;15.02;;;;;;;30.66;43.28;100602.28;4902114;28;20035;-73
2022/06/02 10:18:22;;;;;;;;;;;;;;;30.66;43.80;100658.31;4920186;28;20126;-74
2022/06/02 10:21:06;;;;;;;40.42;16.35;;;;;;;30.47;42.79;100650.81;4915469;28;19954;-74
2022/06/02 10:24:00;;;;;;;29.95;15.07;;;;;;;30.74;40.38;100647.72;4919216;29;20514;-75
2022/06/02 10:26:47;;;;;;;39.10;17.10;;;;;;;31.80;38.94;100655.25;4920312;29;20052;-74
2022/06/02 10:29:34;;;;;;;16.17;8.43;;;;;;;31.27;40.04;100595.50;4915249;29;20039;-73
2022/06/02 10:32:21;;;;;;;30.10;14.55;;;;;;;30.59;39.30;100592.06;4916934;29;20051;-74
2022/06/02 10:35:02;;;;;;;45.08;19.23;;;;;;;30.46;39.17;100644.53;4916833;28;20059;-73
2022/06/02 10:38:12;;;;;;;38.60;14.02;;;;;;;30.18;39.55;100563.75;4917375;29;20051;-73
2022/06/02 10:40:55;;;;;;;35.45;17.52;;;;;;;30.55;39.44;100596.00;4913948;29;20501;-73
2022/06/02 10:43:44;;;;;;;53.20;19.17;;;;;;;31.44;38.93;100624.81;4916612;29;20078;-73
2022/06/02 10:46:10;;;;;;;45.65;18.48;;;;;;;31.14;35.16;100582.13;4955374;28;20062;-74
2022/06/02 10:49:12;;;;;;;73.63;24.50;;;;;;;32.43;35.74;100632.63;4960166;28;20067;-74
2022/06/02 10:52:19;;;;;;;84.72;26.33;;;;;;;32.09;38.20;100576.72;4956245;28;20129;-74
2022/06/02 10:54:50;;;;;;;68.38;21.48;;;;;;;32.07;37.20;100624.00;4909028;28;20062;-75
2022/06/02 10:57:25;;;;;;;66.63;22.73;;;;;;;32.48;36.36;100627.66;4956326;28;20157;-73
2022/06/02 11:00:22;;;;;;;75.00;26.77;;;;;;;31.72;38.58;100627.88;4954379;28;20166;-74
2022/06/02 11:03:00;;;;;;;79.90;28.67;;;;;;;31.83;38.78;100625.13;4952728;28;20046;-74
2022/06/02 11:06:03;;;;;;;63.90;20.98;;;;;;;31.94;37.51;100616.06;4956717;28;20046;-74
2022/06/02 11:08:47;;;;;;;;;;;;;;;32.00;34.70;100555.81;4956657;28;20137;-74
2022/06/02 11:11:34;;;;;;;68.32;23.35;;;;;;;32.02;35.29;100561.97;4951838;28;19926;-73
2022/06/02 11:14:09;;;;;;;55.40;19.05;;;;;;;32.07;38.35;100605.84;4925668;28;20763;-74
2022/06/02 11:16:56;;;;;;;63.95;21.52;;;;;;;31.74;36.10;100567.06;4953577;28;20055;-74
2022/06/02 11:19:43;;;;;;;58.28;18.52;;;;;;;32.18;37.17;100600.34;4953806;28;20093;-74
2022/06/02 11:22:44;;;;;;;68.93;20.30;;;;;;;32.03;35.14;100546.53;4950414;28;20090;-74
2022/06/02 11:25:36;;;;;;;46.80;18.35;;;;;;;31.76;37.27;100589.50;4916863;29;20635;-74
2022/06/02 11:28:12;;;;;;;61.78;21.05;;;;;;;31.55;37.30;100591.34;4951903;28;20039;-73
2022/06/02 11:31:07;;;;;;;63.78;21.15;;;;;;;32.14;37.26;100589.88;4954088;28;20133;-73
2022/06/02 11:33:57;;;;;;;67.85;18.63;;;;;;;31.42;38.27;100582.53;4951965;28;20543;-73
2022/06/02 11:36:45;;;;;;;47.22;19.20;;;;;;;31.42;37.59;100605.13;4935547;28;20047;-73
2022/06/02 11:39:49;;;;;;;55.25;19.52;;;;;;;31.12;38.16;100576.84;4948233;28;20110;-74
2022/06/02 11:43:03;;;;;;;63.33;22.00;;;;;;;31.28;38.33;100575.53;4934664;28;20067;-73
2022/06/02 11:46:07;;;;;;;53.03;19.73;;;;;;;31.28;35.66;100565.56;4949074;28;20046;-73
2022/06/02 11:48:58;;;;;;;44.97;16.95;;;;;;;31.41;34.99;100511.16;4954801;28;20145;-74
2022/06/02 11:51:45;;;;;;;44.42;16.13;;;;;;;32.09;36.08;100576.72;4940477;28;20051;-73
2022/06/02 11:54:39;;;;;;;55.55;19.65;;;;;;;31.58;36.08;100571.22;4951726;28;20555;-74
2022/06/02 11:57:32;;;;;;;25.77;12.65;;;;;;;30.60;38.62;100537.78;4941058;28;20035;-73
2022/06/02 12:00:26;;;;;;;18.02;9.98;;;;;;;30.43;37.06;100554.53;4954390;28;20069;-73
2022/06/02 12:03:41;;;;;;;14.02;9.15;;;;;;;30.03;38.51;100561.28;4954110;28;20043;-73
2022/06/02 12:06:27;;;;;;;20.33;12.20;;;;;;;29.75;39.00;100502.22;4952635;28;20063;-74
2022/06/02 12:09:44;;;;;;;24.73;10.68;;;;;;;30.49;35.81;100506.16;4955224;28;20027;-74
2022/06/02 12:12:31;;;;;;;33.75;11.07;;;;;;;31.48;35.82;100557.59;4908348;28;20055;-73
2022/06/02 12:15:29;;;;;;;29.70;12.40;;;;;;;30.67;38.22;100467.69;4953554;28;20035;-73
2022/06/02 12:18:13;;;;;;;19.52;11.95;;;;;;;30.92;37.62;100543.25;4936134;28;21100;-72
2022/06/02 12:21:05;;;;;;;30.58;11.43;;;;;;;30.92;36.99;100545.97;4956383;28;20042;-74
2022/06/02 12:23:53;;;;;;;21.08;8.85;;;;;;;30.40;36.07;100481.69;4952742;28;20083;-74
2022/06/02 12:26:52;;;;;;;9.93;5.03;;;;;;;30.12;36.41;100485.75;4930596;28;20050;-73
2022/06/02 12:29:36;;;;;;;19.08;8.30;;;;;;;30.48;37.10;100536.94;4952919;28;20054;-72
2022/06/02 12:32:14;;;;;;;15.68;6.60;;;;;;;30.59;35.39;100527.91;4957499;28;20118;-73
2022/06/02 12:34:51;;;;;;;12.10;5.35;;;;;;;30.98;34.26;100531.06;4938012;28;20047;-72
2022/06/02 12:37:41;;;;;;;15.50;4.35;;;;;;;30.86;32.38;100462.50;4949118;28;20047;-74
2022/06/02 12:40:21;;;;;;;19.70;7.20;;;;;;;30.87;33.86;100531.09;4951504;28;20054;-72
2022/06/02 12:43:05;;;;;;;5.78;3.67;;;;;;;30.93;36.10;100517.03;4953922;28;20156;-72
2022/06/02 12:46:12;;;;;;;11.23;6.68;;;;;;;31.07;33.36;100510.41;4956295;28;20047;-72
2022/06/02 12:49:06;;;;;;;11.40;3.90;;;;;;;30.57;33.39;100510.94;4961027;28;20067;-73
2022/06/02 12:51:56;;;;;;;33.90;6.03;;;;;;;30.35;34.04;100464.97;4956188;28;20669;-74
2022/06/02 12:54:53;;;;;;;11.00;4.60;;;;;;;30.32;31.70;100454.34;4958314;28;20043;-73
2022/06/02 12:57:55;;;;;;;13.07;6.60;;;;;;;30.35;31.64;100478.50;4952374;28;20051;-74
2022/06/02 13:00:24;;;;;;;;;;;;;;;30.12;32.79;100464.94;4956621;28;20069;-73
2022/06/02 13:03:17;;;;;;;12.43;6.25;;;;;;;30.30;33.59;100457.22;4956130;28;20400;-72
2022/06/02 13:06:05;;;;;;;10.27;4.25;;;;;;;30.43;34.51;100438.94;4958307;28;20504;-73